sensor_id;sensor_type;location;lat;lon;timestamp;P1;durP1;ratioP1;P2;durP2;ratioP2
78740;SDS011;68062;48.726;9.370;2024-02-26T00:02:11;1.60;;;1.43;;
78740;SDS011;68062;48.726;9.370;2024-02-26T00:04:39;2.80;;;2.10;;
78740;SDS011;68062;48.726;9.370;2024-02-26T00:07:07;1.93;;;1.83;;
78740;SDS011;68062;48.726;9.370;2024-02-26T00:09:35;2.40;;;2.20;;
78740;SDS011;68062;48.726;9.370;2024-02-26T00:12:03;2.70;;;1.80;;
78740;SDS011;68062;48.726;9.370;2024-02-26T00:14:33;1.73;;;1.50;;
78740;SDS011;68062;48.726;9.370;2024-02-26T00:17:01;1.87;;;1.50;;
78740;SDS011;68062;48.726;9.370;2024-02-26T00:19:30;2.17;;;2.00;;
78740;SDS011;68062;48.726;9.370;2024-02-26T00:21:57;2.00;;;1.70;;
78740;SDS011;68062;48.726;9.370;2024-02-26T00:24:25;2.60;;;2.10;;
78740;SDS011;68062;48.726;9.370;2024-02-26T00:26:53;2.90;;;1.73;;
78740;SDS011;68062;48.726;9.370;2024-02-26T00:29:21;1.73;;;1.70;;
78740;SDS011;68062;48.726;9.370;2024-02-26T00:31:51;1.77;;;1.77;;
78740;SDS011;68062;48.726;9.370;2024-02-26T00:34:19;2.20;;;1.57;;
78740;SDS011;68062;48.726;9.370;2024-02-26T00:36:47;2.47;;;1.60;;
78740;SDS011;68062;48.726;9.370;2024-02-26T00:39:15;3.40;;;2.00;;
78740;SDS011;68062;48.726;9.370;2024-02-26T00:41:43;2.50;;;1.83;;
78740;SDS011;68062;48.726;9.370;2024-02-26T00:44:10;2.27;;;1.70;;
78740;SDS011;68062;48.726;9.370;2024-02-26T00:46:39;2.70;;;1.97;;
78740;SDS011;68062;48.726;9.370;2024-02-26T00:49:08;3.77;;;2.33;;
78740;SDS011;68062;48.726;9.370;2024-02-26T00:51:36;2.00;;;1.90;;
78740;SDS011;68062;48.726;9.370;2024-02-26T00:54:04;2.03;;;1.73;;
78740;SDS011;68062;48.726;9.370;2024-02-26T00:56:32;1.97;;;1.60;;
78740;SDS011;68062;48.726;9.370;2024-02-26T00:59:00;1.87;;;1.70;;
78740;SDS011;68062;48.726;9.370;2024-02-26T01:01:28;1.67;;;1.57;;
78740;SDS011;68062;48.726;9.370;2024-02-26T01:03:56;2.67;;;1.97;;
78740;SDS011;68062;48.726;9.370;2024-02-26T01:06:25;2.50;;;2.10;;
78740;SDS011;68062;48.726;9.370;2024-02-26T01:08:53;1.90;;;1.57;;
78740;SDS011;68062;48.726;9.370;2024-02-26T01:11:21;1.90;;;1.80;;
78740;SDS011;68062;48.726;9.370;2024-02-26T01:13:49;1.90;;;1.60;;
78740;SDS011;68062;48.726;9.370;2024-02-26T01:16:19;3.47;;;2.27;;
78740;SDS011;68062;48.726;9.370;2024-02-26T01:18:47;2.13;;;1.57;;
78740;SDS011;68062;48.726;9.370;2024-02-26T01:21:16;2.20;;;1.30;;
78740;SDS011;68062;48.726;9.370;2024-02-26T01:23:45;1.57;;;1.47;;
78740;SDS011;68062;48.726;9.370;2024-02-26T01:26:13;2.30;;;2.10;;
78740;SDS011;68062;48.726;9.370;2024-02-26T01:28:41;1.73;;;1.63;;
78740;SDS011;68062;48.726;9.370;2024-02-26T01:31:09;1.83;;;1.47;;
78740;SDS011;68062;48.726;9.370;2024-02-26T01:33:37;4.80;;;1.83;;
78740;SDS011;68062;48.726;9.370;2024-02-26T01:36:05;1.70;;;1.57;;
78740;SDS011;68062;48.726;9.370;2024-02-26T01:38:34;2.73;;;2.10;;
78740;SDS011;68062;48.726;9.370;2024-02-26T01:41:03;1.90;;;1.40;;
78740;SDS011;68062;48.726;9.370;2024-02-26T01:43:31;4.60;;;1.90;;
78740;SDS011;68062;48.726;9.370;2024-02-26T01:45:58;4.23;;;2.00;;
78740;SDS011;68062;48.726;9.370;2024-02-26T01:48:27;2.43;;;1.70;;
78740;SDS011;68062;48.726;9.370;2024-02-26T01:50:54;2.07;;;1.93;;
78740;SDS011;68062;48.726;9.370;2024-02-26T01:53:22;3.03;;;1.90;;
78740;SDS011;68062;48.726;9.370;2024-02-26T01:55:50;2.60;;;2.30;;
78740;SDS011;68062;48.726;9.370;2024-02-26T01:58:19;2.20;;;2.07;;
78740;SDS011;68062;48.726;9.370;2024-02-26T02:00:48;2.87;;;2.63;;
78740;SDS011;68062;48.726;9.370;2024-02-26T02:03:16;2.50;;;2.17;;
78740;SDS011;68062;48.726;9.370;2024-02-26T02:05:44;2.27;;;1.90;;
78740;SDS011;68062;48.726;9.370;2024-02-26T02:08:12;3.33;;;2.20;;
78740;SDS011;68062;48.726;9.370;2024-02-26T02:10:40;2.73;;;2.40;;
78740;SDS011;68062;48.726;9.370;2024-02-26T02:13:09;2.47;;;2.30;;
78740;SDS011;68062;48.726;9.370;2024-02-26T02:15:39;2.30;;;2.10;;
78740;SDS011;68062;48.726;9.370;2024-02-26T02:18:06;5.03;;;2.70;;
78740;SDS011;68062;48.726;9.370;2024-02-26T02:20:36;3.57;;;2.50;;
78740;SDS011;68062;48.726;9.370;2024-02-26T02:23:04;3.50;;;2.37;;
78740;SDS011;68062;48.726;9.370;2024-02-26T02:25:32;3.10;;;2.87;;
78740;SDS011;68062;48.726;9.370;2024-02-26T02:28:00;3.13;;;2.70;;
78740;SDS011;68062;48.726;9.370;2024-02-26T02:30:29;2.90;;;2.20;;
78740;SDS011;68062;48.726;9.370;2024-02-26T02:32:59;2.63;;;2.50;;
78740;SDS011;68062;48.726;9.370;2024-02-26T02:35:27;5.50;;;2.83;;
78740;SDS011;68062;48.726;9.370;2024-02-26T02:37:57;1.93;;;1.87;;
78740;SDS011;68062;48.726;9.370;2024-02-26T02:40:25;2.77;;;2.60;;
78740;SDS011;68062;48.726;9.370;2024-02-26T02:42:53;2.63;;;1.87;;
78740;SDS011;68062;48.726;9.370;2024-02-26T02:45:21;2.50;;;1.93;;
78740;SDS011;68062;48.726;9.370;2024-02-26T02:47:49;3.00;;;2.50;;
78740;SDS011;68062;48.726;9.370;2024-02-26T02:50:17;3.07;;;2.07;;
78740;SDS011;68062;48.726;9.370;2024-02-26T02:52:45;2.27;;;2.07;;
78740;SDS011;68062;48.726;9.370;2024-02-26T02:55:15;2.00;;;1.90;;
78740;SDS011;68062;48.726;9.370;2024-02-26T02:57:43;3.10;;;2.47;;
78740;SDS011;68062;48.726;9.370;2024-02-26T03:00:11;2.60;;;2.40;;
78740;SDS011;68062;48.726;9.370;2024-02-26T03:02:40;2.70;;;2.50;;
78740;SDS011;68062;48.726;9.370;2024-02-26T03:05:09;2.80;;;1.93;;
78740;SDS011;68062;48.726;9.370;2024-02-26T03:07:37;4.70;;;2.90;;
78740;SDS011;68062;48.726;9.370;2024-02-26T03:10:06;2.93;;;2.47;;
78740;SDS011;68062;48.726;9.370;2024-02-26T03:12:35;3.87;;;2.63;;
78740;SDS011;68062;48.726;9.370;2024-02-26T03:15:04;5.43;;;2.90;;
78740;SDS011;68062;48.726;9.370;2024-02-26T03:17:32;2.70;;;2.50;;
78740;SDS011;68062;48.726;9.370;2024-02-26T03:20:00;2.80;;;2.60;;
78740;SDS011;68062;48.726;9.370;2024-02-26T03:22:30;3.60;;;2.50;;
78740;SDS011;68062;48.726;9.370;2024-02-26T03:24:58;2.97;;;2.20;;
78740;SDS011;68062;48.726;9.370;2024-02-26T03:27:26;2.67;;;2.50;;
78740;SDS011;68062;48.726;9.370;2024-02-26T03:29:55;2.80;;;2.47;;
78740;SDS011;68062;48.726;9.370;2024-02-26T03:32:23;2.90;;;2.27;;
78740;SDS011;68062;48.726;9.370;2024-02-26T03:34:51;2.00;;;1.90;;
78740;SDS011;68062;48.726;9.370;2024-02-26T03:37:20;3.20;;;2.40;;
78740;SDS011;68062;48.726;9.370;2024-02-26T03:39:48;3.93;;;2.40;;
78740;SDS011;68062;48.726;9.370;2024-02-26T03:42:16;3.00;;;2.80;;
78740;SDS011;68062;48.726;9.370;2024-02-26T03:44:44;4.47;;;3.63;;
78740;SDS011;68062;48.726;9.370;2024-02-26T03:47:13;4.23;;;3.33;;
78740;SDS011;68062;48.726;9.370;2024-02-26T03:49:41;4.77;;;2.27;;
78740;SDS011;68062;48.726;9.370;2024-02-26T03:52:09;3.57;;;3.37;;
78740;SDS011;68062;48.726;9.370;2024-02-26T03:54:37;2.90;;;2.37;;
78740;SDS011;68062;48.726;9.370;2024-02-26T03:57:05;2.90;;;2.70;;
78740;SDS011;68062;48.726;9.370;2024-02-26T03:59:33;2.97;;;2.77;;
78740;SDS011;68062;48.726;9.370;2024-02-26T04:02:01;2.30;;;2.10;;
78740;SDS011;68062;48.726;9.370;2024-02-26T04:04:33;3.03;;;2.70;;
78740;SDS011;68062;48.726;9.370;2024-02-26T04:07:03;4.77;;;3.77;;
78740;SDS011;68062;48.726;9.370;2024-02-26T04:09:31;5.70;;;3.90;;
78740;SDS011;68062;48.726;9.370;2024-02-26T04:11:59;3.83;;;3.50;;
78740;SDS011;68062;48.726;9.370;2024-02-26T04:14:27;5.70;;;3.23;;
78740;SDS011;68062;48.726;9.370;2024-02-26T04:16:55;4.37;;;3.53;;
78740;SDS011;68062;48.726;9.370;2024-02-26T04:19:23;3.60;;;2.93;;
78740;SDS011;68062;48.726;9.370;2024-02-26T04:21:52;2.80;;;2.60;;
78740;SDS011;68062;48.726;9.370;2024-02-26T04:24:21;3.10;;;2.40;;
78740;SDS011;68062;48.726;9.370;2024-02-26T04:26:50;3.80;;;3.10;;
78740;SDS011;68062;48.726;9.370;2024-02-26T04:29:18;3.40;;;2.87;;
78740;SDS011;68062;48.726;9.370;2024-02-26T04:31:45;6.20;;;4.10;;
78740;SDS011;68062;48.726;9.370;2024-02-26T04:34:14;4.20;;;3.10;;
78740;SDS011;68062;48.726;9.370;2024-02-26T04:36:42;3.17;;;2.87;;
78740;SDS011;68062;48.726;9.370;2024-02-26T04:39:12;4.20;;;2.20;;
78740;SDS011;68062;48.726;9.370;2024-02-26T04:41:40;2.50;;;2.30;;
78740;SDS011;68062;48.726;9.370;2024-02-26T04:44:08;5.60;;;2.90;;
78740;SDS011;68062;48.726;9.370;2024-02-26T04:46:36;2.97;;;2.77;;
78740;SDS011;68062;48.726;9.370;2024-02-26T04:49:04;2.73;;;2.53;;
78740;SDS011;68062;48.726;9.370;2024-02-26T04:51:32;2.70;;;2.50;;
78740;SDS011;68062;48.726;9.370;2024-02-26T04:54:00;3.20;;;2.90;;
78740;SDS011;68062;48.726;9.370;2024-02-26T04:56:29;4.00;;;3.63;;
78740;SDS011;68062;48.726;9.370;2024-02-26T04:58:57;4.50;;;3.37;;
78740;SDS011;68062;48.726;9.370;2024-02-26T05:01:25;4.50;;;3.83;;
78740;SDS011;68062;48.726;9.370;2024-02-26T05:03:53;4.43;;;3.77;;
78740;SDS011;68062;48.726;9.370;2024-02-26T05:06:21;4.10;;;3.10;;
78740;SDS011;68062;48.726;9.370;2024-02-26T05:08:49;3.47;;;3.10;;
78740;SDS011;68062;48.726;9.370;2024-02-26T05:11:17;5.17;;;3.87;;
78740;SDS011;68062;48.726;9.370;2024-02-26T05:13:47;6.47;;;3.60;;
78740;SDS011;68062;48.726;9.370;2024-02-26T05:16:15;6.17;;;4.13;;
78740;SDS011;68062;48.726;9.370;2024-02-26T05:18:43;3.87;;;3.30;;
78740;SDS011;68062;48.726;9.370;2024-02-26T05:21:11;3.57;;;3.03;;
78740;SDS011;68062;48.726;9.370;2024-02-26T05:23:39;4.77;;;3.83;;
78740;SDS011;68062;48.726;9.370;2024-02-26T05:26:09;7.00;;;4.33;;
78740;SDS011;68062;48.726;9.370;2024-02-26T05:28:38;4.23;;;3.57;;
78740;SDS011;68062;48.726;9.370;2024-02-26T05:31:08;5.20;;;4.40;;
78740;SDS011;68062;48.726;9.370;2024-02-26T05:33:36;4.50;;;3.87;;
78740;SDS011;68062;48.726;9.370;2024-02-26T05:36:05;5.57;;;4.10;;
78740;SDS011;68062;48.726;9.370;2024-02-26T05:38:33;5.57;;;4.83;;
78740;SDS011;68062;48.726;9.370;2024-02-26T05:41:01;6.90;;;3.50;;
78740;SDS011;68062;48.726;9.370;2024-02-26T05:43:31;4.87;;;3.23;;
78740;SDS011;68062;48.726;9.370;2024-02-26T05:45:59;6.77;;;4.40;;
78740;SDS011;68062;48.726;9.370;2024-02-26T05:48:28;4.07;;;3.50;;
78740;SDS011;68062;48.726;9.370;2024-02-26T05:50:56;4.87;;;4.27;;
78740;SDS011;68062;48.726;9.370;2024-02-26T05:53:24;6.47;;;4.47;;
78740;SDS011;68062;48.726;9.370;2024-02-26T05:55:52;6.23;;;3.87;;
78740;SDS011;68062;48.726;9.370;2024-02-26T05:58:20;5.50;;;5.20;;
78740;SDS011;68062;48.726;9.370;2024-02-26T06:00:48;7.30;;;4.60;;
78740;SDS011;68062;48.726;9.370;2024-02-26T06:03:16;9.20;;;5.30;;
78740;SDS011;68062;48.726;9.370;2024-02-26T06:05:46;5.23;;;3.47;;
78740;SDS011;68062;48.726;9.370;2024-02-26T06:08:14;3.80;;;3.10;;
78740;SDS011;68062;48.726;9.370;2024-02-26T06:10:42;3.27;;;2.80;;
78740;SDS011;68062;48.726;9.370;2024-02-26T06:13:10;4.23;;;3.47;;
78740;SDS011;68062;48.726;9.370;2024-02-26T06:15:38;5.00;;;3.47;;
78740;SDS011;68062;48.726;9.370;2024-02-26T06:18:06;5.63;;;4.50;;
78740;SDS011;68062;48.726;9.370;2024-02-26T06:20:34;4.27;;;3.77;;
78740;SDS011;68062;48.726;9.370;2024-02-26T06:23:04;4.77;;;4.07;;
78740;SDS011;68062;48.726;9.370;2024-02-26T06:25:32;5.60;;;4.50;;
78740;SDS011;68062;48.726;9.370;2024-02-26T06:28:00;4.27;;;4.00;;
78740;SDS011;68062;48.726;9.370;2024-02-26T06:30:28;3.83;;;3.33;;
78740;SDS011;68062;48.726;9.370;2024-02-26T06:32:56;4.67;;;3.37;;
78740;SDS011;68062;48.726;9.370;2024-02-26T06:35:24;3.93;;;3.67;;
78740;SDS011;68062;48.726;9.370;2024-02-26T06:37:52;5.83;;;4.13;;
78740;SDS011;68062;48.726;9.370;2024-02-26T06:40:21;6.30;;;3.70;;
78740;SDS011;68062;48.726;9.370;2024-02-26T06:42:49;4.60;;;3.10;;
78740;SDS011;68062;48.726;9.370;2024-02-26T06:45:17;5.10;;;3.90;;
78740;SDS011;68062;48.726;9.370;2024-02-26T06:47:46;3.77;;;3.57;;
78740;SDS011;68062;48.726;9.370;2024-02-26T06:50:15;5.93;;;4.10;;
78740;SDS011;68062;48.726;9.370;2024-02-26T06:52:44;5.10;;;4.53;;
78740;SDS011;68062;48.726;9.370;2024-02-26T06:55:12;4.83;;;4.13;;
78740;SDS011;68062;48.726;9.370;2024-02-26T06:57:41;5.90;;;4.17;;
78740;SDS011;68062;48.726;9.370;2024-02-26T07:00:10;4.40;;;4.17;;
78740;SDS011;68062;48.726;9.370;2024-02-26T07:02:41;4.23;;;3.77;;
78740;SDS011;68062;48.726;9.370;2024-02-26T07:05:09;5.03;;;4.00;;
78740;SDS011;68062;48.726;9.370;2024-02-26T07:07:38;4.70;;;3.50;;
78740;SDS011;68062;48.726;9.370;2024-02-26T07:10:06;3.93;;;3.40;;
78740;SDS011;68062;48.726;9.370;2024-02-26T07:12:34;5.10;;;3.53;;
78740;SDS011;68062;48.726;9.370;2024-02-26T07:15:04;6.73;;;4.33;;
78740;SDS011;68062;48.726;9.370;2024-02-26T07:17:34;4.13;;;3.90;;
78740;SDS011;68062;48.726;9.370;2024-02-26T07:20:03;4.67;;;4.07;;
78740;SDS011;68062;48.726;9.370;2024-02-26T07:22:35;6.10;;;3.97;;
78740;SDS011;68062;48.726;9.370;2024-02-26T07:25:04;5.23;;;3.90;;
78740;SDS011;68062;48.726;9.370;2024-02-26T07:27:34;5.87;;;4.37;;
78740;SDS011;68062;48.726;9.370;2024-02-26T07:30:05;7.07;;;4.40;;
78740;SDS011;68062;48.726;9.370;2024-02-26T07:32:34;5.53;;;4.50;;
78740;SDS011;68062;48.726;9.370;2024-02-26T07:35:02;8.10;;;3.83;;
78740;SDS011;68062;48.726;9.370;2024-02-26T07:37:31;5.83;;;5.00;;
78740;SDS011;68062;48.726;9.370;2024-02-26T07:39:59;6.20;;;5.63;;
78740;SDS011;68062;48.726;9.370;2024-02-26T07:42:27;7.87;;;5.30;;
78740;SDS011;68062;48.726;9.370;2024-02-26T07:44:56;5.83;;;4.10;;
78740;SDS011;68062;48.726;9.370;2024-02-26T07:47:25;5.30;;;4.60;;
78740;SDS011;68062;48.726;9.370;2024-02-26T07:49:54;5.57;;;4.17;;
78740;SDS011;68062;48.726;9.370;2024-02-26T07:52:21;5.23;;;4.13;;
78740;SDS011;68062;48.726;9.370;2024-02-26T07:54:49;16.23;;;10.20;;
78740;SDS011;68062;48.726;9.370;2024-02-26T07:57:17;12.37;;;9.23;;
78740;SDS011;68062;48.726;9.370;2024-02-26T07:59:45;5.90;;;5.13;;
78740;SDS011;68062;48.726;9.370;2024-02-26T08:02:16;6.20;;;4.60;;
78740;SDS011;68062;48.726;9.370;2024-02-26T08:04:47;5.13;;;4.20;;
78740;SDS011;68062;48.726;9.370;2024-02-26T08:07:15;5.87;;;4.47;;
78740;SDS011;68062;48.726;9.370;2024-02-26T08:09:43;6.27;;;4.20;;
78740;SDS011;68062;48.726;9.370;2024-02-26T08:12:12;6.40;;;5.00;;
78740;SDS011;68062;48.726;9.370;2024-02-26T08:14:40;5.60;;;5.23;;
78740;SDS011;68062;48.726;9.370;2024-02-26T08:17:09;7.33;;;4.70;;
78740;SDS011;68062;48.726;9.370;2024-02-26T08:19:37;5.77;;;4.93;;
78740;SDS011;68062;48.726;9.370;2024-02-26T08:22:06;6.60;;;5.43;;
78740;SDS011;68062;48.726;9.370;2024-02-26T08:24:42;8.77;;;5.63;;
78740;SDS011;68062;48.726;9.370;2024-02-26T08:27:10;9.47;;;5.70;;
78740;SDS011;68062;48.726;9.370;2024-02-26T08:29:40;6.90;;;5.40;;
78740;SDS011;68062;48.726;9.370;2024-02-26T08:32:08;11.40;;;5.80;;
78740;SDS011;68062;48.726;9.370;2024-02-26T08:34:36;6.63;;;5.30;;
78740;SDS011;68062;48.726;9.370;2024-02-26T08:37:04;5.87;;;4.60;;
78740;SDS011;68062;48.726;9.370;2024-02-26T08:39:34;7.27;;;5.10;;
78740;SDS011;68062;48.726;9.370;2024-02-26T08:42:03;7.40;;;5.07;;
78740;SDS011;68062;48.726;9.370;2024-02-26T08:44:31;8.47;;;5.27;;
78740;SDS011;68062;48.726;9.370;2024-02-26T08:46:59;7.70;;;5.50;;
78740;SDS011;68062;48.726;9.370;2024-02-26T08:49:27;9.30;;;5.47;;
78740;SDS011;68062;48.726;9.370;2024-02-26T08:51:55;7.57;;;5.50;;
78740;SDS011;68062;48.726;9.370;2024-02-26T08:54:24;14.43;;;6.20;;
78740;SDS011;68062;48.726;9.370;2024-02-26T08:56:53;11.93;;;5.97;;
78740;SDS011;68062;48.726;9.370;2024-02-26T08:59:21;4.80;;;4.50;;
78740;SDS011;68062;48.726;9.370;2024-02-26T09:01:49;7.53;;;5.00;;
78740;SDS011;68062;48.726;9.370;2024-02-26T09:04:17;5.93;;;5.10;;
78740;SDS011;68062;48.726;9.370;2024-02-26T09:06:45;4.60;;;4.30;;
78740;SDS011;68062;48.726;9.370;2024-02-26T09:09:13;10.23;;;5.27;;
78740;SDS011;68062;48.726;9.370;2024-02-26T09:11:43;6.70;;;4.43;;
78740;SDS011;68062;48.726;9.370;2024-02-26T09:14:11;5.80;;;4.87;;
78740;SDS011;68062;48.726;9.370;2024-02-26T09:16:39;9.70;;;5.87;;
78740;SDS011;68062;48.726;9.370;2024-02-26T09:19:07;8.00;;;5.30;;
78740;SDS011;68062;48.726;9.370;2024-02-26T09:21:35;8.13;;;5.70;;
78740;SDS011;68062;48.726;9.370;2024-02-26T09:24:04;7.43;;;5.40;;
78740;SDS011;68062;48.726;9.370;2024-02-26T09:26:33;7.03;;;6.07;;
78740;SDS011;68062;48.726;9.370;2024-02-26T09:29:03;7.80;;;6.30;;
78740;SDS011;68062;48.726;9.370;2024-02-26T09:31:31;7.23;;;5.37;;
78740;SDS011;68062;48.726;9.370;2024-02-26T09:34:00;7.80;;;4.43;;
78740;SDS011;68062;48.726;9.370;2024-02-26T09:36:29;7.70;;;4.80;;
78740;SDS011;68062;48.726;9.370;2024-02-26T09:38:57;7.97;;;4.53;;
78740;SDS011;68062;48.726;9.370;2024-02-26T09:41:27;5.80;;;4.23;;
78740;SDS011;68062;48.726;9.370;2024-02-26T09:43:56;5.40;;;4.20;;
78740;SDS011;68062;48.726;9.370;2024-02-26T09:46:27;6.83;;;4.80;;
78740;SDS011;68062;48.726;9.370;2024-02-26T09:48:56;5.43;;;4.23;;
78740;SDS011;68062;48.726;9.370;2024-02-26T09:51:25;5.40;;;4.50;;
78740;SDS011;68062;48.726;9.370;2024-02-26T09:53:54;7.40;;;5.20;;
78740;SDS011;68062;48.726;9.370;2024-02-26T09:56:23;6.30;;;4.40;;
78740;SDS011;68062;48.726;9.370;2024-02-26T09:58:52;4.23;;;3.97;;
78740;SDS011;68062;48.726;9.370;2024-02-26T10:01:23;5.70;;;5.00;;
78740;SDS011;68062;48.726;9.370;2024-02-26T10:03:54;7.43;;;4.90;;
78740;SDS011;68062;48.726;9.370;2024-02-26T10:06:25;5.00;;;4.17;;
78740;SDS011;68062;48.726;9.370;2024-02-26T10:08:54;5.70;;;4.57;;
78740;SDS011;68062;48.726;9.370;2024-02-26T10:11:25;6.47;;;4.90;;
78740;SDS011;68062;48.726;9.370;2024-02-26T10:13:54;7.50;;;5.00;;
78740;SDS011;68062;48.726;9.370;2024-02-26T10:16:22;6.13;;;4.67;;
78740;SDS011;68062;48.726;9.370;2024-02-26T10:18:53;5.90;;;4.30;;
78740;SDS011;68062;48.726;9.370;2024-02-26T10:21:25;3.63;;;3.43;;
78740;SDS011;68062;48.726;9.370;2024-02-26T10:23:53;7.20;;;3.87;;
78740;SDS011;68062;48.726;9.370;2024-02-26T10:26:21;5.13;;;3.07;;
78740;SDS011;68062;48.726;9.370;2024-02-26T10:28:49;3.50;;;2.67;;
78740;SDS011;68062;48.726;9.370;2024-02-26T10:31:21;3.80;;;3.57;;
78740;SDS011;68062;48.726;9.370;2024-02-26T10:33:49;4.47;;;3.20;;
78740;SDS011;68062;48.726;9.370;2024-02-26T10:36:19;6.30;;;3.73;;
78740;SDS011;68062;48.726;9.370;2024-02-26T10:38:54;6.03;;;4.70;;
78740;SDS011;68062;48.726;9.370;2024-02-26T10:41:22;8.00;;;3.30;;
78740;SDS011;68062;48.726;9.370;2024-02-26T10:43:50;3.83;;;3.00;;
78740;SDS011;68062;48.726;9.370;2024-02-26T10:46:19;4.23;;;3.00;;
78740;SDS011;68062;48.726;9.370;2024-02-26T10:48:49;3.53;;;3.20;;
78740;SDS011;68062;48.726;9.370;2024-02-26T10:51:20;4.30;;;3.30;;
78740;SDS011;68062;48.726;9.370;2024-02-26T10:53:56;4.27;;;3.20;;
78740;SDS011;68062;48.726;9.370;2024-02-26T10:56:28;2.93;;;2.77;;
78740;SDS011;68062;48.726;9.370;2024-02-26T10:58:57;2.73;;;2.60;;
78740;SDS011;68062;48.726;9.370;2024-02-26T11:01:26;4.07;;;2.77;;
78740;SDS011;68062;48.726;9.370;2024-02-26T11:03:55;3.40;;;3.20;;
78740;SDS011;68062;48.726;9.370;2024-02-26T11:06:27;4.30;;;2.67;;
78740;SDS011;68062;48.726;9.370;2024-02-26T11:08:56;3.73;;;2.80;;
78740;SDS011;68062;48.726;9.370;2024-02-26T11:11:26;4.10;;;2.97;;
78740;SDS011;68062;48.726;9.370;2024-02-26T11:13:55;3.40;;;2.53;;
78740;SDS011;68062;48.726;9.370;2024-02-26T11:16:24;2.93;;;2.60;;
78740;SDS011;68062;48.726;9.370;2024-02-26T11:18:54;3.73;;;2.27;;
78740;SDS011;68062;48.726;9.370;2024-02-26T11:21:24;2.93;;;2.60;;
78740;SDS011;68062;48.726;9.370;2024-02-26T11:24:07;3.87;;;2.80;;
78740;SDS011;68062;48.726;9.370;2024-02-26T11:26:38;3.53;;;2.73;;
78740;SDS011;68062;48.726;9.370;2024-02-26T11:29:12;4.23;;;2.70;;
78740;SDS011;68062;48.726;9.370;2024-02-26T11:31:43;5.90;;;4.50;;
78740;SDS011;68062;48.726;9.370;2024-02-26T11:34:11;4.30;;;3.27;;
78740;SDS011;68062;48.726;9.370;2024-02-26T11:36:43;5.40;;;3.43;;
78740;SDS011;68062;48.726;9.370;2024-02-26T11:39:12;4.80;;;2.83;;
78740;SDS011;68062;48.726;9.370;2024-02-26T11:41:43;3.87;;;2.80;;
78740;SDS011;68062;48.726;9.370;2024-02-26T11:44:11;3.40;;;3.20;;
78740;SDS011;68062;48.726;9.370;2024-02-26T11:46:39;4.33;;;3.03;;
78740;SDS011;68062;48.726;9.370;2024-02-26T11:52:02;3.57;;;2.57;;
78740;SDS011;68062;48.726;9.370;2024-02-26T11:54:40;5.07;;;3.10;;
78740;SDS011;68062;48.726;9.370;2024-02-26T11:57:21;5.23;;;4.60;;
78740;SDS011;68062;48.726;9.370;2024-02-26T11:59:56;3.43;;;2.40;;
78740;SDS011;68062;48.726;9.370;2024-02-26T12:05:09;4.07;;;2.50;;
78740;SDS011;68062;48.726;9.370;2024-02-26T12:07:42;3.10;;;2.87;;
78740;SDS011;68062;48.726;9.370;2024-02-26T12:13:02;2.33;;;2.13;;
78740;SDS011;68062;48.726;9.370;2024-02-26T12:15:35;3.57;;;2.10;;
78740;SDS011;68062;48.726;9.370;2024-02-26T12:18:05;2.27;;;1.90;;
78740;SDS011;68062;48.726;9.370;2024-02-26T12:20:37;3.53;;;2.60;;
78740;SDS011;68062;48.726;9.370;2024-02-26T12:23:06;1.97;;;1.87;;
78740;SDS011;68062;48.726;9.370;2024-02-26T12:25:34;3.37;;;2.00;;
78740;SDS011;68062;48.726;9.370;2024-02-26T12:28:02;2.63;;;1.97;;
78740;SDS011;68062;48.726;9.370;2024-02-26T12:30:30;4.60;;;2.10;;
78740;SDS011;68062;48.726;9.370;2024-02-26T12:32:59;2.73;;;2.30;;
78740;SDS011;68062;48.726;9.370;2024-02-26T12:35:30;1.70;;;1.60;;
78740;SDS011;68062;48.726;9.370;2024-02-26T12:37:59;3.43;;;2.00;;
78740;SDS011;68062;48.726;9.370;2024-02-26T12:40:28;5.17;;;2.10;;
78740;SDS011;68062;48.726;9.370;2024-02-26T12:42:57;2.73;;;2.00;;
78740;SDS011;68062;48.726;9.370;2024-02-26T12:45:25;3.43;;;2.30;;
78740;SDS011;68062;48.726;9.370;2024-02-26T12:47:55;2.20;;;1.90;;
78740;SDS011;68062;48.726;9.370;2024-02-26T12:50:23;3.10;;;1.70;;
78740;SDS011;68062;48.726;9.370;2024-02-26T12:52:51;1.87;;;1.77;;
78740;SDS011;68062;48.726;9.370;2024-02-26T12:55:20;1.90;;;1.47;;
78740;SDS011;68062;48.726;9.370;2024-02-26T12:57:50;1.33;;;1.20;;
78740;SDS011;68062;48.726;9.370;2024-02-26T13:00:23;2.33;;;1.60;;
78740;SDS011;68062;48.726;9.370;2024-02-26T13:02:54;3.00;;;1.40;;
78740;SDS011;68062;48.726;9.370;2024-02-26T13:05:23;3.13;;;1.47;;
78740;SDS011;68062;48.726;9.370;2024-02-26T13:07:51;1.67;;;1.37;;
78740;SDS011;68062;48.726;9.370;2024-02-26T13:10:23;2.00;;;1.10;;
78740;SDS011;68062;48.726;9.370;2024-02-26T13:12:53;2.50;;;1.20;;
78740;SDS011;68062;48.726;9.370;2024-02-26T13:15:21;1.70;;;1.60;;
78740;SDS011;68062;48.726;9.370;2024-02-26T13:17:50;1.13;;;1.10;;
78740;SDS011;68062;48.726;9.370;2024-02-26T13:20:26;2.47;;;1.20;;
78740;SDS011;68062;48.726;9.370;2024-02-26T13:23:00;3.80;;;1.10;;
78740;SDS011;68062;48.726;9.370;2024-02-26T13:25:28;1.80;;;1.00;;
78740;SDS011;68062;48.726;9.370;2024-02-26T13:28:08;1.00;;;0.90;;
78740;SDS011;68062;48.726;9.370;2024-02-26T13:30:40;2.00;;;0.80;;
78740;SDS011;68062;48.726;9.370;2024-02-26T13:33:09;0.80;;;0.60;;
78740;SDS011;68062;48.726;9.370;2024-02-26T13:35:39;0.70;;;0.57;;
78740;SDS011;68062;48.726;9.370;2024-02-26T13:38:07;1.00;;;0.80;;
78740;SDS011;68062;48.726;9.370;2024-02-26T13:40:35;5.00;;;1.00;;
78740;SDS011;68062;48.726;9.370;2024-02-26T13:43:03;1.73;;;1.30;;
78740;SDS011;68062;48.726;9.370;2024-02-26T13:45:34;1.90;;;1.60;;
78740;SDS011;68062;48.726;9.370;2024-02-26T13:48:04;3.33;;;1.60;;
78740;SDS011;68062;48.726;9.370;2024-02-26T13:50:33;3.17;;;2.43;;
78740;SDS011;68062;48.726;9.370;2024-02-26T13:53:01;2.37;;;1.87;;
78740;SDS011;68062;48.726;9.370;2024-02-26T13:55:30;2.90;;;2.03;;
78740;SDS011;68062;48.726;9.370;2024-02-26T13:57:59;8.33;;;6.03;;
78740;SDS011;68062;48.726;9.370;2024-02-26T14:00:28;9.67;;;5.47;;
78740;SDS011;68062;48.726;9.370;2024-02-26T14:03:00;4.63;;;2.63;;
78740;SDS011;68062;48.726;9.370;2024-02-26T14:05:28;2.30;;;1.50;;
78740;SDS011;68062;48.726;9.370;2024-02-26T14:07:56;2.77;;;1.60;;
78740;SDS011;68062;48.726;9.370;2024-02-26T14:10:25;2.07;;;1.47;;
78740;SDS011;68062;48.726;9.370;2024-02-26T14:12:53;2.70;;;1.80;;
78740;SDS011;68062;48.726;9.370;2024-02-26T14:15:21;2.60;;;2.00;;
78740;SDS011;68062;48.726;9.370;2024-02-26T14:17:51;1.60;;;1.40;;
78740;SDS011;68062;48.726;9.370;2024-02-26T14:20:24;2.93;;;1.70;;
78740;SDS011;68062;48.726;9.370;2024-02-26T14:22:53;1.87;;;1.67;;
78740;SDS011;68062;48.726;9.370;2024-02-26T14:25:21;1.20;;;1.10;;
78740;SDS011;68062;48.726;9.370;2024-02-26T14:27:51;1.30;;;1.10;;
78740;SDS011;68062;48.726;9.370;2024-02-26T14:30:19;2.10;;;1.70;;
78740;SDS011;68062;48.726;9.370;2024-02-26T14:32:47;1.70;;;1.20;;
78740;SDS011;68062;48.726;9.370;2024-02-26T14:35:16;1.83;;;0.90;;
78740;SDS011;68062;48.726;9.370;2024-02-26T14:37:46;2.00;;;1.43;;
78740;SDS011;68062;48.726;9.370;2024-02-26T14:40:15;1.57;;;1.10;;
78740;SDS011;68062;48.726;9.370;2024-02-26T14:42:44;2.10;;;1.43;;
78740;SDS011;68062;48.726;9.370;2024-02-26T14:45:13;2.27;;;1.40;;
78740;SDS011;68062;48.726;9.370;2024-02-26T14:47:41;1.30;;;1.13;;
78740;SDS011;68062;48.726;9.370;2024-02-26T14:50:09;1.23;;;0.90;;
78740;SDS011;68062;48.726;9.370;2024-02-26T14:52:37;2.60;;;1.70;;
78740;SDS011;68062;48.726;9.370;2024-02-26T14:55:07;1.77;;;1.20;;
78740;SDS011;68062;48.726;9.370;2024-02-26T14:57:35;2.30;;;1.53;;
78740;SDS011;68062;48.726;9.370;2024-02-26T15:00:03;1.53;;;1.20;;
78740;SDS011;68062;48.726;9.370;2024-02-26T15:02:33;0.93;;;0.83;;
78740;SDS011;68062;48.726;9.370;2024-02-26T15:05:01;1.30;;;1.30;;
78740;SDS011;68062;48.726;9.370;2024-02-26T15:07:31;1.97;;;1.23;;